createdAt,value
2022-10-18T00:02:00.629Z,30
2022-10-18T00:04:00.575Z,32
2022-10-18T00:06:00.585Z,31
2022-10-18T00:09:00.518Z,36
2022-10-18T00:12:00.498Z,35
2022-10-18T00:14:00.563Z,44
2022-10-18T00:17:00.499Z,31
2022-10-18T00:20:00.502Z,32
2022-10-18T00:22:00.521Z,31
2022-10-18T00:25:00.536Z,32
2022-10-18T00:28:00.495Z,27
2022-10-18T00:30:00.530Z,32
2022-10-18T00:33:00.509Z,29
2022-10-18T00:36:00.515Z,30
2022-10-18T00:38:00.544Z,28
2022-10-18T00:41:00.540Z,33
2022-10-18T00:44:00.530Z,27
2022-10-18T00:46:00.542Z,26
2022-10-18T00:49:00.561Z,27
2022-10-18T00:52:00.509Z,27
2022-10-18T00:54:00.541Z,31
2022-10-18T00:57:00.546Z,30
2022-10-18T01:00:00.528Z,30
2022-10-18T01:02:00.631Z,30
2022-10-18T01:05:00.562Z,35
2022-10-18T01:07:10.796Z,40
2022-10-18T01:09:10.830Z,34
2022-10-18T01:12:10.802Z,32
2022-10-18T01:15:03.938Z,29
2022-10-18T01:18:00.526Z,31
2022-10-18T01:21:00.551Z,33
2022-10-18T01:24:00.531Z,27
2022-10-18T01:26:00.563Z,28
2022-10-18T01:29:00.607Z,26
2022-10-18T01:32:00.518Z,33
2022-10-18T01:35:00.568Z,33
2022-10-18T01:37:00.565Z,36
2022-10-18T01:40:00.508Z,28
2022-10-18T01:42:00.514Z,30
2022-10-18T01:44:00.539Z,25
2022-10-18T01:46:00.523Z,28
2022-10-18T01:49:00.596Z,38
2022-10-18T01:52:00.556Z,29
2022-10-18T01:54:00.590Z,31
2022-10-18T01:57:00.538Z,27
2022-10-18T01:59:00.572Z,31
2022-10-18T02:02:00.576Z,33
2022-10-18T02:05:00.570Z,31
2022-10-18T02:07:00.637Z,29
2022-10-18T02:10:00.650Z,28
2022-10-18T02:13:00.563Z,29
2022-10-18T02:16:00.569Z,27
2022-10-18T02:18:00.584Z,36
2022-10-18T02:21:00.559Z,29
2022-10-18T02:24:00.554Z,31
2022-10-18T02:26:00.571Z,32
2022-10-18T02:29:00.582Z,30
2022-10-18T02:32:00.517Z,30
2022-10-18T02:34:00.566Z,29
2022-10-18T02:37:00.552Z,30
2022-10-18T02:39:00.579Z,31
2022-10-18T02:42:00.538Z,28
2022-10-18T02:44:00.542Z,26
2022-10-18T02:46:00.547Z,32
2022-10-18T02:49:00.609Z,28
2022-10-18T02:52:00.562Z,27
2022-10-18T02:55:00.568Z,30
2022-10-18T02:58:00.559Z,30
2022-10-18T03:00:00.619Z,28
2022-10-18T03:03:00.742Z,28
2022-10-18T03:06:00.565Z,31
2022-10-18T03:09:00.576Z,29
2022-10-18T03:11:00.564Z,26
2022-10-18T03:17:00.532Z,30
2022-10-18T03:19:00.635Z,28
2022-10-18T03:22:00.548Z,30
2022-10-18T03:25:00.542Z,31
2022-10-18T03:27:00.572Z,30
2022-10-18T03:30:00.543Z,28
2022-10-18T03:33:00.564Z,37
2022-10-18T03:35:00.578Z,35
2022-10-18T03:38:00.582Z,33
2022-10-18T03:41:00.553Z,28
2022-10-18T03:43:00.618Z,33
2022-10-18T03:46:00.584Z,33
2022-10-18T03:49:00.632Z,34
2022-10-18T03:52:00.539Z,31
2022-10-18T03:54:00.801Z,32
2022-10-18T03:57:00.595Z,35
2022-10-18T03:59:00.646Z,35
2022-10-18T04:02:00.681Z,34
2022-10-18T04:05:00.609Z,35
2022-10-18T04:07:00.637Z,34
2022-10-18T04:10:00.589Z,31
2022-10-18T04:13:01.088Z,42
2022-10-18T04:16:00.562Z,33
2022-10-18T04:18:00.588Z,33
2022-10-18T04:20:00.607Z,36
2022-10-18T04:23:00.551Z,32
2022-10-18T04:25:00.555Z,36
2022-10-18T04:28:00.568Z,30
2022-10-18T04:30:00.682Z,35
2022-10-18T04:33:00.576Z,32
2022-10-18T04:35:00.584Z,35
2022-10-18T04:38:00.594Z,43
2022-10-18T04:41:00.609Z,40
2022-10-18T04:44:00.596Z,34
2022-10-18T04:46:00.559Z,39
2022-10-18T04:48:00.596Z,37
2022-10-18T04:51:00.571Z,41
2022-10-18T04:53:00.573Z,49
2022-10-18T04:55:00.611Z,43
2022-10-18T04:57:00.581Z,38
2022-10-18T04:59:00.653Z,35
2022-10-18T05:02:00.705Z,36
2022-10-18T05:04:16.196Z,39
2022-10-18T05:07:00.562Z,39
2022-10-18T05:09:00.592Z,42
2022-10-18T05:12:00.564Z,44
2022-10-18T05:14:00.605Z,36
2022-10-18T05:17:00.601Z,40
2022-10-18T05:20:00.624Z,46
2022-10-18T05:22:00.590Z,45
2022-10-18T05:24:00.631Z,41
2022-10-18T05:27:00.587Z,42
2022-10-18T05:29:00.760Z,48
2022-10-18T05:32:00.561Z,41
2022-10-18T05:34:00.715Z,42
2022-10-18T05:37:00.608Z,39
2022-10-18T05:40:00.588Z,43
2022-10-18T05:43:00.577Z,44
2022-10-18T05:45:00.572Z,38
2022-10-18T05:48:00.583Z,40
2022-10-18T05:51:00.595Z,42
2022-10-18T05:54:00.608Z,40
2022-10-18T05:57:00.569Z,38
2022-10-18T06:00:00.622Z,36
2022-10-18T06:03:00.679Z,32
2022-10-18T06:05:00.581Z,38
2022-10-18T06:08:00.577Z,30
2022-10-18T06:10:00.625Z,30
2022-10-18T06:13:00.579Z,31
2022-10-18T06:15:00.574Z,33
2022-10-18T06:17:00.631Z,33
2022-10-18T06:19:00.655Z,35
2022-10-18T06:22:00.574Z,36
2022-10-18T06:24:00.596Z,36
2022-10-18T06:26:00.612Z,41
2022-10-18T06:28:00.653Z,35
2022-10-18T06:31:00.595Z,42
2022-10-18T06:34:00.609Z,36
2022-10-18T06:37:00.584Z,38
2022-10-18T06:39:00.668Z,34
2022-10-18T06:42:00.609Z,35
2022-10-18T06:44:00.621Z,34
2022-10-18T06:47:00.584Z,30
2022-10-18T06:49:00.716Z,34
2022-10-18T06:52:00.610Z,37
2022-10-18T06:54:16.710Z,34
2022-10-18T06:57:00.592Z,31
2022-10-18T07:00:00.599Z,31
2022-10-18T07:03:00.610Z,30
2022-10-18T07:05:00.647Z,28
2022-10-18T07:08:00.617Z,36
2022-10-18T07:11:00.610Z,31
2022-10-18T07:14:00.631Z,33
2022-10-18T07:17:00.606Z,34
2022-10-18T07:19:00.609Z,32
2022-10-18T07:21:00.615Z,36
2022-10-18T07:23:00.601Z,30
2022-10-18T07:25:00.617Z,34
2022-10-18T07:28:00.601Z,27
2022-10-18T07:30:00.671Z,32
2022-10-18T07:33:00.597Z,30
2022-10-18T07:35:00.650Z,31
2022-10-18T07:38:00.699Z,29
2022-10-18T07:40:00.701Z,35
2022-10-18T07:43:04.052Z,32
2022-10-18T07:45:00.647Z,28
2022-10-18T07:48:00.635Z,26
2022-10-18T07:51:00.623Z,26
2022-10-18T07:53:00.653Z,22
2022-10-18T07:56:01.355Z,30
2022-10-18T07:59:00.621Z,26
2022-10-18T08:01:00.642Z,33
2022-10-18T08:04:04.659Z,26
2022-10-18T08:07:00.608Z,28
2022-10-18T08:09:00.642Z,25
2022-10-18T08:12:00.634Z,27
2022-10-18T08:15:00.626Z,28
2022-10-18T08:17:00.631Z,29
2022-10-18T08:19:00.678Z,35
2022-10-18T08:22:00.633Z,28
2022-10-18T08:24:00.764Z,28
2022-10-18T08:27:00.629Z,27
2022-10-18T08:29:10.612Z,31
2022-10-18T08:32:00.629Z,31
2022-10-18T08:34:00.620Z,36
2022-10-18T08:36:00.646Z,33
2022-10-18T08:39:00.636Z,32
2022-10-18T08:41:02.817Z,29
2022-10-18T08:44:01.135Z,66
2022-10-18T08:47:00.620Z,32
2022-10-18T08:49:00.637Z,33
2022-10-18T08:52:00.761Z,31
2022-10-18T08:55:00.636Z,35
2022-10-18T08:57:00.628Z,38
2022-10-18T09:00:00.673Z,38
2022-10-18T09:03:00.659Z,38
2022-10-18T09:05:00.650Z,46
2022-10-18T09:08:00.642Z,43
2022-10-18T09:11:00.679Z,46
2022-10-18T09:13:00.796Z,53
2022-10-18T09:16:00.638Z,45
2022-10-18T09:19:00.623Z,52
2022-10-18T09:21:00.647Z,44
2022-10-18T09:24:00.688Z,44
2022-10-18T09:27:00.636Z,55
2022-10-18T09:29:00.817Z,48
2022-10-18T09:32:00.673Z,45
2022-10-18T09:35:00.657Z,42
2022-10-18T09:37:00.664Z,47
2022-10-18T09:40:00.655Z,42
2022-10-18T09:43:00.626Z,40
2022-10-18T09:45:00.657Z,38
2022-10-18T09:47:00.635Z,33
2022-10-18T09:49:00.971Z,39
2022-10-18T09:52:00.651Z,29
2022-10-18T09:55:00.647Z,32
2022-10-18T09:57:00.652Z,30
2022-10-18T09:59:00.702Z,33
2022-10-18T10:02:00.681Z,30
2022-10-18T10:04:00.659Z,28
2022-10-18T10:06:00.653Z,30
2022-10-18T10:09:00.657Z,27
2022-10-18T10:12:00.636Z,30
2022-10-18T10:15:00.635Z,26
2022-10-18T10:17:00.654Z,28
2022-10-18T10:20:00.705Z,29
2022-10-18T10:23:00.685Z,29
2022-10-18T10:25:00.936Z,28
2022-10-18T10:28:00.631Z,30
2022-10-18T10:30:04.295Z,24
2022-10-18T10:33:00.930Z,25
2022-10-18T10:36:00.685Z,24
2022-10-18T10:39:00.636Z,23
2022-10-18T10:41:00.716Z,29
2022-10-18T10:44:00.660Z,24
2022-10-18T10:47:00.669Z,20
2022-10-18T10:49:27.747Z,26
2022-10-18T10:52:08.635Z,23
2022-10-18T10:54:00.734Z,24
2022-10-18T10:57:00.707Z,29
2022-10-18T11:00:00.667Z,23
2022-10-18T11:03:06.077Z,17
2022-10-18T11:06:00.697Z,17
2022-10-18T11:08:00.696Z,14
2022-10-18T11:11:00.736Z,17
2022-10-18T11:14:20.844Z,21
2022-10-18T11:16:00.698Z,22
2022-10-18T11:19:00.691Z,24
2022-10-18T11:22:00.654Z,23
2022-10-18T11:24:00.686Z,19
2022-10-18T11:27:00.657Z,24
2022-10-18T11:29:00.680Z,26
2022-10-18T11:31:00.709Z,32
2022-10-18T11:34:09.490Z,25
2022-10-18T11:37:22.798Z,27
2022-10-18T11:39:01.382Z,25
2022-10-18T11:42:00.688Z,25
2022-10-18T11:44:02.881Z,29
2022-10-18T11:47:00.718Z,28
2022-10-18T11:50:00.666Z,24
2022-10-18T11:52:08.134Z,25
2022-10-18T11:54:00.704Z,22
2022-10-18T11:57:00.671Z,26
2022-10-18T11:59:00.722Z,21
2022-10-18T12:02:00.668Z,20
2022-10-18T12:04:00.685Z,21
2022-10-18T12:07:00.690Z,20
2022-10-18T12:09:00.703Z,19
2022-10-18T12:11:05.387Z,16
2022-10-18T12:14:00.741Z,19
2022-10-18T12:17:20.576Z,18
2022-10-18T12:19:00.707Z,19
2022-10-18T12:22:00.700Z,17
2022-10-18T12:25:00.674Z,15
2022-10-18T12:27:00.708Z,17
2022-10-18T12:30:00.790Z,15
2022-10-18T12:33:03.616Z,15
2022-10-18T12:35:00.703Z,16
2022-10-18T12:38:00.702Z,14
2022-10-18T12:40:13.327Z,12
2022-10-18T12:43:00.723Z,14
2022-10-18T12:46:00.702Z,14
2022-10-18T12:48:00.693Z,12
2022-10-18T12:51:00.695Z,14
2022-10-18T12:53:00.685Z,16
2022-10-18T12:55:00.676Z,23
2022-10-18T12:57:00.686Z,22
2022-10-18T12:59:00.719Z,18
2022-10-18T13:02:00.740Z,18
2022-10-18T13:04:00.748Z,15
2022-10-18T13:07:00.707Z,16
2022-10-18T13:10:00.847Z,20
2022-10-18T13:13:05.023Z,16
2022-10-18T13:16:00.689Z,14
2022-10-18T13:18:00.701Z,16
2022-10-18T13:21:00.691Z,23
2022-10-18T13:23:00.758Z,11
2022-10-18T13:26:00.719Z,13
2022-10-18T13:29:00.745Z,14
2022-10-18T13:32:00.675Z,14
2022-10-18T13:34:00.716Z,16
2022-10-18T13:37:00.695Z,16
2022-10-18T13:39:00.796Z,14
2022-10-18T13:42:00.751Z,16
2022-10-18T13:45:00.714Z,11
2022-10-18T13:48:00.678Z,13
2022-10-18T13:50:00.690Z,15
2022-10-18T13:52:00.753Z,13
2022-10-18T13:54:00.804Z,16
2022-10-18T13:57:00.739Z,16
2022-10-18T14:00:00.724Z,11
2022-10-18T14:03:01.081Z,9
2022-10-18T14:06:00.752Z,13
2022-10-18T14:09:03.334Z,19
2022-10-18T14:11:02.976Z,12
2022-10-18T14:14:00.748Z,10
2022-10-18T14:17:00.688Z,10
2022-10-18T14:19:00.711Z,9
2022-10-18T14:21:13.175Z,10
2022-10-18T14:24:00.705Z,9
2022-10-18T14:26:00.756Z,9
2022-10-18T14:29:00.815Z,7
2022-10-18T14:31:00.792Z,10
2022-10-18T14:34:00.740Z,8
2022-10-18T14:37:00.710Z,6
2022-10-18T14:39:00.930Z,8
2022-10-18T14:42:00.717Z,7
2022-10-18T14:44:00.738Z,7
2022-10-18T14:46:00.731Z,9
2022-10-18T14:49:00.713Z,5
2022-10-18T14:51:00.762Z,6
2022-10-18T14:54:00.752Z,7
2022-10-18T14:57:00.754Z,6
2022-10-18T14:59:00.722Z,6
2022-10-18T15:01:00.800Z,5
2022-10-18T15:04:00.719Z,4
2022-10-18T15:06:00.752Z,4
2022-10-18T15:09:00.778Z,7
2022-10-18T15:12:00.741Z,7
2022-10-18T15:14:00.779Z,4
2022-10-18T15:17:00.736Z,4
2022-10-18T15:20:03.272Z,7
2022-10-18T15:22:27.156Z,8
2022-10-18T15:25:00.698Z,5
2022-10-18T15:28:00.730Z,3
2022-10-18T15:30:00.827Z,3
2022-10-18T15:33:00.728Z,4
2022-10-18T15:35:00.725Z,3
2022-10-18T15:37:00.729Z,4
2022-10-18T15:39:00.795Z,4
2022-10-18T15:42:00.766Z,6
2022-10-18T15:45:00.700Z,5
2022-10-18T15:47:00.761Z,6
2022-10-18T15:50:00.804Z,8
2022-10-18T15:53:00.734Z,8
2022-10-18T15:56:00.783Z,8
2022-10-18T15:59:00.740Z,8
2022-10-18T16:02:00.832Z,9
2022-10-18T16:04:00.804Z,7
2022-10-18T16:07:00.772Z,6
2022-10-18T16:10:00.729Z,8
2022-10-18T16:13:00.756Z,6
2022-10-18T16:15:00.739Z,7
2022-10-18T16:18:00.745Z,7
2022-10-18T16:20:00.790Z,6
2022-10-18T16:23:00.775Z,6
2022-10-18T16:26:00.753Z,7
2022-10-18T16:28:00.779Z,5
2022-10-18T16:31:00.734Z,4
2022-10-18T16:33:00.768Z,7
2022-10-18T16:35:00.750Z,4
2022-10-18T16:38:00.731Z,5
2022-10-18T16:40:00.747Z,5
2022-10-18T16:42:00.793Z,5
2022-10-18T16:45:00.739Z,4
2022-10-18T16:47:00.792Z,5
2022-10-18T16:50:05.467Z,5
2022-10-18T16:52:00.773Z,8
2022-10-18T16:54:00.751Z,6
2022-10-18T16:57:00.770Z,5
2022-10-18T17:00:00.757Z,6
2022-10-18T17:03:00.789Z,5
2022-10-18T17:06:00.749Z,6
2022-10-18T17:09:00.768Z,5
2022-10-18T17:11:00.775Z,7
2022-10-18T17:13:00.786Z,9
2022-10-18T17:16:00.777Z,8
2022-10-18T17:19:00.760Z,7
2022-10-18T17:22:02.636Z,8
2022-10-18T17:24:00.779Z,10
2022-10-18T17:26:07.028Z,8
2022-10-18T17:29:00.800Z,6
2022-10-18T17:31:00.830Z,8
2022-10-18T17:34:00.760Z,9
2022-10-18T17:36:00.772Z,8
2022-10-18T17:39:00.870Z,10
2022-10-18T17:42:00.825Z,7
2022-10-18T17:45:01.882Z,9
2022-10-18T17:48:00.828Z,8
2022-10-18T17:50:00.868Z,9
2022-10-18T17:53:00.808Z,7
2022-10-18T17:56:02.290Z,8
2022-10-18T17:59:00.771Z,7
2022-10-18T18:01:00.814Z,7
2022-10-18T18:04:00.766Z,11
2022-10-18T18:06:00.799Z,9
2022-10-18T18:09:00.816Z,9
2022-10-18T18:12:00.795Z,9
2022-10-18T18:14:00.794Z,7
2022-10-18T18:17:00.802Z,9
2022-10-18T18:19:00.839Z,7
2022-10-18T18:21:01.176Z,8
2022-10-18T18:24:00.773Z,7
2022-10-18T18:26:00.798Z,8
2022-10-18T18:29:00.908Z,15
2022-10-18T18:31:00.793Z,12
2022-10-18T18:35:00.809Z,11
2022-10-18T18:40:01.117Z,10
2022-10-18T18:43:12.251Z,12
2022-10-18T18:45:00.806Z,8
2022-10-18T18:47:01.298Z,10
2022-10-18T18:52:01.094Z,8
2022-10-18T18:54:00.868Z,9
2022-10-18T18:57:00.788Z,9
2022-10-18T18:59:00.892Z,11
2022-10-18T19:01:01.142Z,10
2022-10-18T19:04:00.812Z,10
2022-10-18T19:06:01.784Z,11
2022-10-18T19:09:00.822Z,10
2022-10-18T19:11:00.797Z,11
2022-10-18T19:13:00.825Z,9
2022-10-18T19:15:00.853Z,9
2022-10-18T19:18:00.825Z,7
2022-10-18T19:20:01.075Z,9
2022-10-18T19:23:00.805Z,13
2022-10-18T19:25:00.850Z,10
2022-10-18T19:28:00.807Z,9
2022-10-18T19:30:00.822Z,12
2022-10-18T19:33:02.732Z,7
2022-10-18T19:36:00.787Z,10
2022-10-18T19:38:00.852Z,9
2022-10-18T19:41:00.850Z,18
2022-10-18T19:44:00.851Z,9
2022-10-18T19:46:00.839Z,9
2022-10-18T19:49:00.883Z,10
2022-10-18T19:52:00.819Z,8
2022-10-18T19:54:00.851Z,8
2022-10-18T19:57:00.845Z,12
2022-10-18T19:59:00.864Z,11
2022-10-18T20:02:00.857Z,14
2022-10-18T20:05:00.865Z,10
2022-10-18T20:08:00.842Z,9
2022-10-18T20:10:00.835Z,10
2022-10-18T20:13:00.860Z,11
2022-10-18T20:15:00.951Z,8
2022-10-18T20:18:00.849Z,9
2022-10-18T20:20:00.879Z,9
2022-10-18T20:23:00.822Z,9
2022-10-18T20:25:00.844Z,11
2022-10-18T20:28:00.815Z,16
2022-10-18T20:30:00.829Z,15
2022-10-18T20:33:00.818Z,14
2022-10-18T20:38:08.081Z,14
2022-10-18T20:41:00.830Z,15
2022-10-18T20:43:02.913Z,11
2022-10-18T20:45:00.907Z,10
2022-10-18T20:48:00.792Z,11
2022-10-18T20:50:00.829Z,11
2022-10-18T20:53:00.838Z,30
2022-10-18T20:56:00.799Z,10
2022-10-18T20:58:00.813Z,11
2022-10-18T21:01:00.850Z,13
2022-10-18T21:04:00.826Z,10
2022-10-18T21:06:00.977Z,11
2022-10-18T21:09:00.815Z,16
2022-10-18T21:12:00.874Z,11
2022-10-18T21:15:00.800Z,15
2022-10-18T21:17:00.844Z,14
2022-10-18T21:20:00.822Z,14
2022-10-18T21:22:00.872Z,13
2022-10-18T21:25:01.204Z,15
2022-10-18T21:28:00.853Z,12
2022-10-18T21:30:00.858Z,15
2022-10-18T21:33:00.838Z,16
2022-10-18T21:36:00.840Z,15
2022-10-18T21:38:00.852Z,12
2022-10-18T21:40:00.860Z,16
2022-10-18T21:43:00.841Z,13
2022-10-18T21:46:00.861Z,15
2022-10-18T21:48:00.877Z,14
2022-10-18T21:51:00.832Z,15
2022-10-18T21:54:00.838Z,16
2022-10-18T21:56:00.871Z,13
2022-10-18T21:58:00.882Z,14
2022-10-18T22:01:00.851Z,14
2022-10-18T22:04:00.816Z,11
2022-10-18T22:06:02.610Z,13
2022-10-18T22:09:05.683Z,15
2022-10-18T22:11:02.597Z,14
2022-10-18T22:14:02.596Z,14
2022-10-18T22:17:02.605Z,14
2022-10-18T22:20:02.597Z,14
2022-10-18T22:23:02.594Z,13
2022-10-18T22:25:02.590Z,16
2022-10-18T22:27:02.605Z,18
2022-10-18T22:30:02.582Z,18
2022-10-18T22:32:02.589Z,13
2022-10-18T22:34:02.619Z,16
2022-10-18T22:38:02.656Z,14
2022-10-18T22:41:02.611Z,16
2022-10-18T22:44:03.494Z,13
2022-10-18T22:47:02.601Z,14
2022-10-18T22:49:02.595Z,18
2022-10-18T22:52:02.623Z,16
2022-10-18T22:55:02.594Z,15
2022-10-18T22:57:02.602Z,16
2022-10-18T23:00:02.596Z,17
2022-10-18T23:03:02.587Z,26
2022-10-18T23:06:02.590Z,28
2022-10-18T23:08:02.606Z,29
2022-10-18T23:11:02.590Z,31
2022-10-18T23:13:02.610Z,37
2022-10-18T23:16:04.176Z,37
2022-10-18T23:19:02.601Z,41
2022-10-18T23:22:02.597Z,45
2022-10-18T23:25:02.634Z,57
2022-10-18T23:28:02.598Z,50
2022-10-18T23:31:02.668Z,51
2022-10-18T23:34:02.600Z,51
2022-10-18T23:36:02.580Z,54
2022-10-18T23:39:02.622Z,48
2022-10-18T23:41:02.657Z,52
2022-10-18T23:44:02.626Z,57
2022-10-18T23:46:02.647Z,53
2022-10-18T23:49:02.588Z,53
2022-10-18T23:52:02.590Z,55
2022-10-18T23:54:02.600Z,54
2022-10-18T23:57:02.577Z,60
2022-10-18T23:59:02.598Z,60
